Time;durP1;ratioP1;P1;durP2;ratioP2;P2;SDS_P1;SDS_P2;PMS_P1;PMS_P2;Temp;Humidity;BMP_temperature;BMP_pressure;BME280_temperature;BME280_humidity;BME280_pressure;Samples;Min_cycle;Max_cycle;Signal;HPM_P1;HPM_P2
2022/04/21 00:00:43;;;;;;;60.75;28.73;;;;;;;7.16;100.00;98420.31;4400728;32;20042;-76
2022/04/21 00:03:09;;;;;;;54.38;28.23;;;;;;;7.11;100.00;98422.13;4388339;32;20035;-76
2022/04/21 00:05:36;;;;;;;62.97;28.12;;;;;;;7.13;100.00;98423.47;4397884;32;20060;-76
2022/04/21 00:08:03;;;;;;;52.22;28.05;;;;;;;6.93;100.00;98415.94;4402332;32;20526;-76
2022/04/21 00:10:30;;;;;;;63.72;30.95;;;;;;;6.83;100.00;98394.31;4400424;32;20318;-76
2022/04/21 00:12:57;;;;;;;69.00;31.73;;;;;;;7.03;100.00;98420.66;4400325;32;20076;-76
2022/04/21 00:15:25;;;;;;;71.22;31.65;;;;;;;7.14;100.00;98425.13;4401071;32;20356;-80
2022/04/21 00:17:53;;;;;;;62.97;31.25;;;;;;;7.26;100.00;98423.19;4401431;32;20046;-75
2022/04/21 00:20:19;;;;;;;69.87;32.17;;;;;;;7.09;100.00;98384.87;4388023;32;20056;-76
2022/04/21 00:25:31;;;;;;;67.18;33.28;;;;;;;7.19;100.00;98429.75;4399580;32;20034;-76
2022/04/21 00:27:57;;;;;;;67.20;31.50;;;;;;;7.04;100.00;98382.12;4388315;32;20397;-76
2022/04/21 00:30:24;;;;;;;71.12;27.90;;;;;;;7.04;100.00;98382.12;4401767;32;20035;-76
2022/04/21 00:32:51;;;;;;;55.97;27.87;;;;;;;7.13;100.00;98418.13;4401334;32;20046;-75
2022/04/21 00:35:18;;;;;;;60.22;28.52;;;;;;;7.18;100.00;98415.56;4400153;32;20078;-78
2022/04/21 00:37:54;;;;;;;63.80;28.48;;;;;;;7.16;100.00;98417.66;4400480;32;20068;-76
2022/04/21 00:40:22;;;;;;;68.95;28.60;;;;;;;7.17;100.00;98408.56;4402199;32;20509;-76
2022/04/21 00:42:49;;;;;;;76.90;28.85;;;;;;;7.25;100.00;98416.19;4400535;32;20031;-76
2022/04/21 00:45:16;;;;;;;49.55;25.70;;;;;;;7.27;100.00;98419.47;4399138;32;20039;-77
2022/04/21 00:47:45;;;;;;;57.70;26.15;;;;;;;7.21;100.00;98415.06;4400975;32;20061;-76
2022/04/21 00:50:18;;;;;;;78.47;27.70;;;;;;;7.16;100.00;98417.66;4387361;32;20088;-77
2022/04/21 00:52:53;;;;;;;64.90;27.23;;;;;;;7.23;100.00;98418.31;4399870;32;20072;-77
2022/04/21 00:55:21;;;;;;;92.35;29.58;;;;;;;7.24;100.00;98417.28;4400680;32;20291;-75
2022/04/21 00:57:50;;;;;;;102.87;29.40;;;;;;;7.21;100.00;98420.44;4400802;32;20083;-75
2022/04/21 01:00:17;;;;;;;67.22;29.83;;;;;;;7.23;100.00;98422.87;4400869;32;20072;-76
2022/04/21 01:02:50;;;;;;;83.82;29.25;;;;;;;7.22;100.00;98423.91;4399328;32;20068;-77
2022/04/21 01:05:20;;;;;;;88.07;29.33;;;;;;;7.09;100.00;98411.66;4401806;32;21021;-76
2022/04/21 01:07:47;;;;;;;88.60;30.85;;;;;;;7.06;100.00;98412.94;4386978;32;20041;-76
2022/04/21 01:10:13;;;;;;;110.15;31.50;;;;;;;6.93;100.00;98391.03;4400375;32;20048;-77
2022/04/21 01:12:43;;;;;;;78.85;31.80;;;;;;;7.16;100.00;98412.28;4398928;32;20433;-77
2022/04/21 01:15:10;;;;;;;78.85;29.70;;;;;;;7.25;100.00;98416.19;4387762;32;20065;-75
2022/04/21 01:17:38;;;;;;;75.82;30.00;;;;;;;7.13;100.00;98396.72;4402688;32;20393;-77
2022/04/21 01:20:06;;;;;;;70.78;28.85;;;;;;;7.20;100.00;98410.75;4403303;32;20046;-76
2022/04/21 01:22:32;;;;;;;81.87;33.53;;;;;;;7.01;100.00;98378.06;4403107;32;20401;-77
2022/04/21 01:24:59;;;;;;;83.30;32.67;;;;;;;7.17;100.00;98397.88;4388807;32;20084;-76
2022/04/21 01:27:29;;;;;;;73.95;31.90;;;;;;;7.14;100.00;98409.06;4404891;32;20051;-77
2022/04/21 01:29:55;;;;;;;79.60;29.40;;;;;;;7.33;100.00;98416.88;4389366;32;20034;-76
2022/04/21 01:32:22;;;;;;;109.70;31.95;;;;;;;7.23;100.00;98410.28;4389178;32;20095;-76
2022/04/21 01:34:48;;;;;;;96.22;31.55;;;;;;;6.93;100.00;98401.75;4401120;32;20403;-77
2022/04/21 01:42:45;;;;;;;94.22;33.58;;;;;;;6.93;100.00;98386.50;4402772;32;20425;-75
2022/04/21 01:45:11;;;;;;;87.93;31.42;;;;;;;6.89;100.00;98386.16;4403217;32;20047;-76
2022/04/21 01:47:38;;;;;;;117.78;30.73;;;;;;;7.12;100.00;98405.00;4402926;32;20061;-77
2022/04/21 01:50:07;;;;;;;88.55;33.22;;;;;;;6.94;100.00;98377.41;4403788;32;20056;-76
2022/04/21 01:52:37;;;;;;;95.35;32.72;;;;;;;6.88;100.00;98368.47;4401509;32;20051;-77
2022/04/21 01:55:06;;;;;;;93.60;33.65;;;;;;;7.16;100.00;98423.00;4403191;32;20038;-76
2022/04/21 01:57:34;;;;;;;106.07;33.50;;;;;;;6.98;100.00;98383.09;4403403;32;20035;-76
2022/04/21 02:00:01;;;;;;;103.87;35.08;;;;;;;7.08;100.00;98391.28;4402628;32;20064;-76
2022/04/21 02:02:32;;;;;;;91.63;31.70;;;;;;;7.33;100.00;98423.03;4389025;32;20030;-76
2022/04/21 02:05:00;;;;;;;120.60;34.63;;;;;;;7.29;100.00;98429.91;4390187;32;20047;-76
2022/04/21 02:07:27;;;;;;;122.15;33.72;;;;;;;7.03;100.00;98396.56;4404193;32;20433;-76
2022/04/21 02:09:55;;;;;;;126.20;32.35;;;;;;;6.99;100.00;98395.41;4389407;32;20058;-76
2022/04/21 02:12:23;;;;;;;119.07;35.72;;;;;;;6.96;100.00;98395.91;4387398;32;20368;-77
2022/04/21 02:14:50;;;;;;;96.35;35.63;;;;;;;7.19;100.00;98422.53;4403356;32;20182;-75
2022/04/21 02:17:16;;;;;;;159.40;36.78;;;;;;;7.22;100.00;98418.56;4402505;32;20076;-75
2022/04/21 02:19:43;;;;;;;106.72;36.20;;;;;;;7.19;100.00;98417.16;4402501;32;20038;-76
2022/04/21 02:22:09;;;;;;;121.43;35.10;;;;;;;6.99;100.00;98376.66;4401847;32;20099;-77
2022/04/21 02:24:35;;;;;;;178.00;39.38;;;;;;;7.28;100.00;98418.41;4400402;32;20039;-76
2022/04/21 02:27:03;;;;;;;124.25;34.88;;;;;;;7.20;100.00;98418.78;4404061;32;20891;-76
2022/04/21 02:29:29;;;;;;;104.40;35.75;;;;;;;6.80;100.00;98374.22;4401592;32;20426;-76
2022/04/21 02:31:55;;;;;;;123.38;35.15;;;;;;;7.05;100.00;98391.75;4403741;32;20096;-75
2022/04/21 02:34:22;;;;;;;133.82;34.80;;;;;;;7.01;100.00;98387.97;4389018;32;20039;-76
2022/04/21 02:36:48;;;;;;;117.57;33.88;;;;;;;7.18;100.00;98407.53;4386337;32;20494;-77
2022/04/21 02:39:15;;;;;;;101.12;33.65;;;;;;;7.23;100.00;98402.25;4403305;32;20104;-76
2022/04/21 02:41:41;;;;;;;162.98;35.47;;;;;;;6.96;100.00;98363.78;4403374;32;20050;-76
2022/04/21 02:44:08;;;;;;;107.68;33.67;;;;;;;7.19;100.00;98405.66;4403026;32;20351;-76
2022/04/21 02:46:34;;;;;;;108.37;32.70;;;;;;;7.22;100.00;98403.28;4403654;32;20051;-75
2022/04/21 02:49:02;;;;;;;115.78;33.22;;;;;;;6.90;100.00;98361.00;4399823;32;20038;-77
2022/04/21 02:51:32;;;;;;;122.35;34.13;;;;;;;7.04;100.00;98398.19;4403414;32;20043;-77
2022/04/21 02:59:30;;;;;;;109.70;33.08;;;;;;;7.22;100.00;98405.16;4401728;32;20070;-76
2022/04/21 03:01:57;;;;;;;182.73;38.70;;;;;;;6.35;100.00;98270.72;4401236;32;20035;-76
2022/04/21 03:04:23;;;;;;;93.32;31.98;;;;;;;7.11;100.00;98398.81;4400637;32;20061;-79
2022/04/21 03:06:50;;;;;;;133.30;33.50;;;;;;;6.72;100.00;98361.25;4401667;32;20133;-77
2022/04/21 03:09:16;;;;;;;147.82;32.55;;;;;;;6.78;100.00;98362.97;4402489;32;20072;-76
2022/04/21 03:11:43;;;;;;;156.20;34.30;;;;;;;6.74;100.00;98361.81;4390944;32;20042;-77
2022/04/21 03:14:09;;;;;;;149.00;31.92;;;;;;;7.11;100.00;98404.19;4385495;32;20071;-76
2022/04/21 03:16:36;;;;;;;116.93;34.28;;;;;;;7.14;100.00;98403.69;4386662;32;20380;-79
2022/04/21 03:19:02;;;;;;;165.95;35.22;;;;;;;6.87;100.00;98366.84;4385293;32;20027;-77
2022/04/21 03:24:19;;;;;;;144.43;33.92;;;;;;;6.71;100.00;98359.63;4387202;32;20047;-78
2022/04/21 03:26:50;;;;;;;126.47;33.45;;;;;;;6.98;100.00;98393.78;4384253;32;20406;-77
2022/04/21 03:29:17;;;;;;;160.05;34.95;;;;;;;6.65;100.00;98363.25;4386665;32;20047;-76
2022/04/21 03:31:44;;;;;;;193.13;34.13;;;;;;;6.90;100.00;98401.16;4386973;32;20372;-75
2022/04/21 03:34:18;;;;;;;131.55;32.05;;;;;;;6.79;100.00;98396.69;4372309;32;20413;-75
2022/04/21 03:36:49;;;;;;;136.45;33.63;;;;;;;6.81;100.00;98393.75;4385614;32;20065;-75
2022/04/21 03:39:17;;;;;;;214.73;34.70;;;;;;;6.76;100.00;98375.75;4387762;32;20069;-74
2022/04/21 03:41:44;;;;;;;186.52;35.90;;;;;;;7.00;100.00;98402.38;4387156;32;20031;-75
2022/04/21 03:44:11;;;;;;;188.87;33.88;;;;;;;7.00;100.00;98402.38;4372914;32;20035;-78
2022/04/21 03:46:38;;;;;;;123.78;31.25;;;;;;;7.01;100.00;98401.34;4371406;32;20443;-75
2022/04/21 03:49:05;;;;;;;227.32;37.05;;;;;;;7.08;100.00;98410.03;4386264;32;20039;-76
2022/04/21 03:51:32;;;;;;;160.18;34.20;;;;;;;7.05;100.00;98408.66;4386601;32;20048;-76
2022/04/21 03:53:59;;;;;;;161.27;34.58;;;;;;;6.80;100.00;98366.19;4372430;32;20031;-75
2022/04/21 03:56:29;;;;;;;111.32;33.40;;;;;;;6.97;100.00;98392.16;4384465;32;20064;-76
2022/04/21 03:58:56;;;;;;;169.27;34.58;;;;;;;7.05;100.00;98389.91;4373032;32;20077;-76
2022/04/21 04:01:23;;;;;;;179.55;34.40;;;;;;;6.86;100.00;98386.66;4359398;32;20043;-77
2022/04/21 04:03:50;;;;;;;150.90;33.78;;;;;;;6.90;100.00;98366.38;4373333;32;20078;-76
2022/04/21 04:11:50;;;;;;;225.62;34.60;;;;;;;7.23;100.00;98402.25;4387328;32;20072;-77
2022/04/21 04:14:17;;;;;;;183.32;34.75;;;;;;;7.22;100.00;98399.81;4383615;32;20056;-77
2022/04/21 04:16:44;;;;;;;191.10;35.80;;;;;;;7.31;100.00;98413.59;4386303;32;20035;-77
2022/04/21 04:19:11;;;;;;;284.48;39.22;;;;;;;7.31;100.00;98408.25;4385559;32;20051;-77
2022/04/21 04:21:38;;;;;;;139.25;33.85;;;;;;;6.97;100.00;98360.03;4405517;32;20034;-77
2022/04/21 04:24:05;;;;;;;217.77;31.95;;;;;;;7.15;100.00;98405.34;4400056;32;20022;-79
2022/04/21 04:26:32;;;;;;;317.42;42.15;;;;;;;7.14;100.00;98409.06;4416832;32;20054;-76
2022/04/21 04:28:59;;;;;;;131.87;31.98;;;;;;;7.08;100.00;98377.91;4415889;32;20034;-76
2022/04/21 04:31:26;;;;;;;230.68;34.60;;;;;;;7.32;100.00;98401.84;4405436;32;20027;-76
2022/04/21 04:33:52;;;;;;;170.45;33.17;;;;;;;7.36;100.00;98400.31;4400286;32;20064;-76
2022/04/21 04:36:19;;;;;;;216.98;33.30;;;;;;;7.31;100.00;98402.88;4397661;32;20078;-76
2022/04/21 04:38:48;;;;;;;151.70;31.70;;;;;;;7.26;100.00;98411.69;4385594;32;20069;-76
2022/04/21 04:44:01;;;;;;;187.62;29.45;;;;;;;7.38;100.00;98408.91;4384305;32;20073;-77
2022/04/21 04:46:37;;;;;;;242.60;36.35;;;;;;;7.39;100.00;98411.34;4384943;32;20067;-76
2022/04/21 04:49:09;;;;;;;383.17;40.35;;;;;;;7.34;100.00;98403.22;4385299;32;20035;-76
2022/04/21 04:51:41;;;;;;;371.45;37.35;;;;;;;7.44;100.00;98402.56;4384296;32;20452;-78
2022/04/21 04:54:09;;;;;;;;;;;;;;;7.36;100.00;98408.34;4387692;32;20526;-76
2022/04/21 04:56:37;;;;;;;92.18;27.13;;;;;;;7.38;100.00;98408.91;4387075;32;20255;-77
2022/04/21 04:59:04;;;;;;;288.15;33.13;;;;;;;7.17;100.00;98375.66;4373262;32;20043;-76
2022/04/21 05:01:42;;;;;;;119.25;30.95;;;;;;;7.33;100.00;98403.47;4390748;32;20111;-74
2022/04/21 05:04:11;;;;;;;199.25;29.67;;;;;;;7.46;100.00;98413.84;4400803;32;20334;-76
2022/04/21 05:06:42;;;;;;;110.22;27.23;;;;;;;7.55;100.00;98422.31;4398937;32;20039;-76
2022/04/21 05:09:11;;;;;;;197.40;31.42;;;;;;;7.49;100.00;98416.03;4400705;32;20056;-76
2022/04/21 05:11:39;;;;;;;95.43;26.17;;;;;;;7.24;100.00;98387.81;4388455;32;20047;-78
2022/04/21 05:14:07;;;;;;;114.47;25.17;;;;;;;7.53;100.00;98416.34;4386204;32;20936;-76
2022/04/21 05:16:36;;;;;;;160.60;25.73;;;;;;;7.34;100.00;98413.13;4385019;32;20430;-76
2022/04/21 05:19:04;;;;;;;110.45;25.10;;;;;;;7.37;100.00;98423.34;4385776;32;20395;-76
2022/04/21 05:21:32;;;;;;;67.62;22.33;;;;;;;7.36;100.00;98427.09;4384222;32;20035;-78
2022/04/21 05:23:59;;;;;;;117.10;27.00;;;;;;;7.38;100.00;98427.66;4392707;32;20102;-77
2022/04/21 05:26:28;;;;;;;113.15;24.63;;;;;;;7.22;100.00;98384.56;4401346;32;20407;-76
2022/04/21 05:28:56;;;;;;;76.78;23.30;;;;;;;7.56;100.00;98430.09;4400167;32;20080;-77
2022/04/21 05:31:23;;;;;;;80.30;22.92;;;;;;;7.39;100.00;98399.81;4385941;32;20060;-83
2022/04/21 05:33:50;;;;;;;66.30;22.10;;;;;;;7.32;100.00;98399.16;4408289;32;20064;-76
2022/04/21 05:36:17;;;;;;;97.75;22.00;;;;;;;7.26;100.00;98393.72;4416704;32;20230;-75
2022/04/21 05:38:43;;;;;;;61.83;24.35;;;;;;;7.42;100.00;98421.56;4417168;32;20027;-77
2022/04/21 05:41:13;;;;;;;68.55;23.23;;;;;;;7.38;100.00;98392.84;4406452;32;20039;-76
2022/04/21 05:43:44;;;;;;;116.20;25.45;;;;;;;7.29;100.00;98400.44;4387561;32;20051;-80
2022/04/21 05:46:14;;;;;;;64.07;20.90;;;;;;;7.42;100.00;98393.97;4385984;32;20064;-76
2022/04/21 05:48:41;;;;;;;157.40;25.75;;;;;;;7.44;100.00;98386.50;4385804;32;20060;-76
2022/04/21 05:51:15;;;;;;;127.38;24.27;;;;;;;7.27;100.00;98395.38;4386604;32;20063;-78
2022/04/21 05:53:48;;;;;;;57.47;20.62;;;;;;;7.24;100.00;98398.53;4397554;32;20046;-77
2022/04/21 05:56:14;;;;;;;68.68;21.77;;;;;;;7.50;100.00;98423.03;4402312;32;20166;-76
2022/04/21 05:58:41;;;;;;;62.80;22.00;;;;;;;7.55;100.00;98424.97;4402908;32;20086;-76
2022/04/21 06:01:09;;;;;;;105.75;21.58;;;;;;;7.68;100.00;98424.63;4399441;32;20047;-76
2022/04/21 06:03:38;;;;;;;74.97;22.35;;;;;;;7.56;100.00;98430.09;4395678;32;20182;-77
2022/04/21 06:06:05;;;;;;;59.15;22.58;;;;;;;7.55;100.00;98431.13;4410047;32;20091;-78
2022/04/21 06:08:32;;;;;;;82.07;22.60;;;;;;;7.36;100.00;98398.44;4392969;32;20073;-73
2022/04/21 06:11:05;;;;;;;71.28;24.00;;;;;;;7.62;100.00;98426.41;4381768;32;20057;-73
2022/04/21 06:13:32;;;;;;;56.92;21.90;;;;;;;7.80;100.00;98416.47;4378183;32;20078;-75
2022/04/21 06:15:59;;;;;;;63.22;20.35;;;;;;;7.70;100.00;98422.50;4377884;32;20081;-73
2022/04/21 06:18:26;;;;;;;50.05;19.37;;;;;;;7.73;100.00;98426.56;4382607;32;20031;-75
2022/04/21 06:20:54;;;;;;;49.88;19.98;;;;;;;7.76;100.00;98418.84;4388668;32;20417;-74
2022/04/21 06:23:21;;;;;;;55.33;19.12;;;;;;;7.45;100.00;98388.94;4387153;32;20480;-75
2022/04/21 06:25:48;;;;;;;43.55;18.27;;;;;;;7.69;100.00;98425.44;4387664;32;20050;-73
2022/04/21 06:28:15;;;;;;;50.28;19.73;;;;;;;7.89;100.00;98425.72;4385685;32;20329;-74
2022/04/21 06:30:42;;;;;;;54.60;22.13;;;;;;;7.80;100.00;98411.12;4388391;32;20039;-74
2022/04/21 06:33:09;;;;;;;46.33;18.62;;;;;;;7.90;100.00;98422.00;4385892;32;20060;-75
2022/04/21 06:35:35;;;;;;;46.20;17.75;;;;;;;7.84;100.00;98428.34;4385256;32;20393;-74
2022/04/21 06:38:02;;;;;;;49.30;19.10;;;;;;;7.95;100.00;98424.75;4385910;32;20047;-74
2022/04/21 06:40:28;;;;;;;42.03;18.83;;;;;;;8.06;100.00;98424.88;4387459;32;20036;-74
2022/04/21 06:42:55;;;;;;;40.72;17.27;;;;;;;7.99;100.00;98412.47;4384753;32;20027;-75
2022/04/21 06:48:07;;;;;;;31.00;14.90;;;;;;;8.12;100.00;98423.87;4381976;32;20039;-74
2022/04/21 06:50:39;;;;;;;32.50;15.45;;;;;;;8.03;100.00;98425.41;4372677;32;20422;-75
2022/04/21 06:53:08;;;;;;;36.20;14.82;;;;;;;8.10;100.00;98420.66;4370565;32;20057;-79
2022/04/21 06:55:35;;;;;;;42.72;16.25;;;;;;;8.21;100.00;98422.41;4372842;32;20052;-75
2022/04/21 06:58:02;;;;;;;29.08;14.93;;;;;;;7.98;100.00;98392.09;4381961;32;20024;-75
2022/04/21 07:00:29;;;;;;;32.88;14.52;;;;;;;8.18;100.00;98406.81;4379855;32;20076;-75
2022/04/21 07:02:57;;;;;;;28.55;13.55;;;;;;;8.02;100.00;98413.03;4378287;32;20080;-75
2022/04/21 07:05:26;;;;;;;26.20;12.82;;;;;;;8.16;100.00;98425.03;4378575;32;20031;-74
2022/04/21 07:07:52;;;;;;;28.25;13.10;;;;;;;8.18;100.00;98420.22;4379508;32;20315;-74
2022/04/21 07:10:20;;;;;;;20.55;10.20;;;;;;;8.24;100.00;98421.91;4383190;32;20421;-74
2022/04/21 07:12:47;;;;;;;23.40;11.38;;;;;;;8.11;100.00;98428.44;4398983;32;20026;-75
2022/04/21 07:15:14;;;;;;;26.50;11.85;;;;;;;7.91;100.00;98386.06;4400878;32;20043;-75
2022/04/21 07:17:44;;;;;;;25.55;11.95;;;;;;;8.08;100.00;98387.91;4389377;32;20046;-73
2022/04/21 07:20:12;;;;;;;25.35;12.60;;;;;;;8.16;100.00;98425.03;4404366;32;20066;-73
2022/04/21 07:22:39;;;;;;;23.67;10.77;;;;;;;8.29;100.00;98432.69;4418184;32;20054;-74
2022/04/21 07:25:09;;;;;;;15.35;8.43;;;;;;;8.23;100.00;98425.63;4415721;32;20341;-77
2022/04/21 07:27:37;;;;;;;20.20;9.20;;;;;;;8.01;100.00;98431.00;4417772;32;20042;-74
2022/04/21 07:30:06;;;;;;;22.60;11.02;;;;;;;8.13;100.00;98430.87;4401172;32;20123;-73
2022/04/21 07:32:32;;;;;;;21.45;11.38;;;;;;;8.24;100.00;98427.25;4396948;32;20042;-75
2022/04/21 07:34:59;;;;;;;24.00;10.38;;;;;;;8.20;100.00;98431.53;4388303;32;20059;-78
2022/04/21 07:37:26;;;;;;;25.60;10.73;;;;;;;8.12;100.00;98423.87;4398128;32;20449;-75
2022/04/21 07:39:52;;;;;;;26.00;11.20;;;;;;;8.14;100.00;98443.25;4398338;32;20051;-75
2022/04/21 07:42:19;;;;;;;28.27;12.00;;;;;;;7.88;100.00;98402.69;4395659;32;20043;-74
2022/04/21 07:44:45;;;;;;;23.67;11.02;;;;;;;8.24;100.00;98443.34;4416922;32;20064;-74
2022/04/21 07:47:12;;;;;;;29.73;13.50;;;;;;;8.14;100.00;98435.19;4415353;32;20084;-77
2022/04/21 07:49:48;;;;;;;25.98;12.75;;;;;;;8.28;100.00;98433.78;4393279;32;20446;-74
2022/04/21 07:55:17;;;;;;;25.48;11.38;;;;;;;8.32;100.00;98431.37;4416059;32;20278;-74
2022/04/21 07:57:45;;;;;;;26.27;12.65;;;;;;;8.33;100.00;98449.91;4416420;32;20052;-74
2022/04/21 08:00:16;;;;;;;21.67;12.45;;;;;;;8.50;100.00;98446.37;4416315;32;20027;-74
2022/04/21 08:02:44;;;;;;;23.12;12.75;;;;;;;8.36;100.00;98446.75;4405860;32;20072;-75
2022/04/21 08:05:12;;;;;;;23.75;12.95;;;;;;;8.23;100.00;98409.53;4395421;32;20077;-74
2022/04/21 08:07:39;;;;;;;22.15;11.93;;;;;;;8.23;100.00;98404.19;4384910;32;20028;-74
2022/04/21 08:10:08;;;;;;;30.55;13.73;;;;;;;8.17;100.00;98411.38;4385459;32;20051;-74
2022/04/21 08:12:39;;;;;;;23.17;12.05;;;;;;;8.46;100.00;98443.41;4386251;32;20057;-76
2022/04/21 08:15:10;;;;;;;25.73;13.93;;;;;;;8.25;100.00;98412.81;4387039;32;20072;-75
2022/04/21 08:17:37;;;;;;;31.25;14.55;;;;;;;8.39;100.00;98449.97;4385417;32;20042;-75
2022/04/21 08:20:06;;;;;;;27.25;13.45;;;;;;;8.39;100.00;98456.16;4385285;32;20043;-75
2022/04/21 08:22:33;;;;;;;25.55;12.73;;;;;;;8.52;100.00;98449.62;4386417;32;20030;-77
2022/04/21 08:33:21;;;;;;;14.20;8.77;;;;;;;8.58;100.00;98442.44;4399519;32;20082;-74
2022/04/21 08:35:49;;;;;;;16.60;9.13;;;;;;;8.57;100.00;98452.38;4402144;32;20038;-77
2022/04/21 08:38:17;;;;;;;18.33;11.38;;;;;;;8.54;100.00;98453.69;4399302;32;20068;-74
2022/04/21 08:40:58;;;;;;;23.60;12.50;;;;;;;8.73;100.00;98443.44;4387967;32;20051;-73
2022/04/21 08:43:27;;;;;;;21.92;12.73;;;;;;;8.81;100.00;98441.38;4387812;32;20084;-74
2022/04/21 08:45:55;;;;;;;20.70;12.07;;;;;;;8.98;100.00;98452.81;4386529;32;20031;-75
2022/04/21 08:48:23;;;;;;;17.30;11.02;;;;;;;8.81;100.00;98422.59;4401056;32;20120;-73
2022/04/21 08:50:51;;;;;;;16.15;9.90;;;;;;;8.90;100.00;98455.94;4400502;32;20051;-74
2022/04/21 08:53:21;;;;;;;21.33;10.63;;;;;;;8.84;100.00;98452.41;4387965;32;20030;-73
2022/04/21 08:55:48;;;;;;;21.83;12.43;;;;;;;8.99;100.00;98448.25;4399630;32;20072;-76
2022/04/21 08:58:15;;;;;;;21.87;11.27;;;;;;;8.90;100.00;98450.56;4401558;32;20059;-72
2022/04/21 09:00:43;;;;;;;19.55;11.50;;;;;;;9.01;100.00;98451.50;4401192;32;20235;-73
2022/04/21 09:03:12;;;;;;;12.25;8.23;;;;;;;8.99;100.00;98411.47;4387083;32;20058;-73
2022/04/21 09:05:40;;;;;;;12.52;9.23;;;;;;;9.15;100.00;98446.53;4401355;32;20050;-76
2022/04/21 09:08:21;;;;;;;13.57;8.80;;;;;;;8.94;100.00;98408.75;4400088;32;20034;-74
2022/04/21 09:11:02;;;;;;;12.20;8.98;;;;;;;8.80;100.00;98424.44;4386358;32;20065;-74
2022/04/21 09:13:40;;;;;;;14.27;8.02;;;;;;;8.74;100.00;98387.88;4398977;32;20035;-77
2022/04/21 09:16:08;;;;;;;12.18;7.57;;;;;;;9.27;100.00;98460.63;4400767;32;20054;-75
2022/04/21 09:18:40;;;;;;;13.35;7.97;;;;;;;8.99;100.00;98422.22;4396642;32;20047;-74
2022/04/21 09:21:11;;;;;;;17.63;8.87;;;;;;;9.09;100.00;98457.25;4401075;32;20039;-74
2022/04/21 09:23:38;;;;;;;11.98;8.82;;;;;;;9.16;100.00;98454.34;4394145;32;20311;-73
2022/04/21 09:26:14;;;;;;;10.60;7.05;;;;;;;9.14;100.00;98455.66;4400608;32;20061;-74
2022/04/21 09:28:41;;;;;;;13.07;8.13;;;;;;;9.13;100.00;98448.69;4393196;32;20065;-75
2022/04/21 09:31:09;;;;;;;12.90;7.22;;;;;;;9.41;100.00;98461.81;4385244;32;20039;-75
2022/04/21 09:33:39;;;;;;;11.77;6.93;;;;;;;9.34;100.00;98445.09;4382847;32;20031;-73
2022/04/21 09:36:07;;;;;;;12.30;6.55;;;;;;;9.32;100.00;98457.97;4397365;32;20056;-74
2022/04/21 09:38:34;;;;;;;12.05;7.60;;;;;;;9.47;100.00;98451.91;4402703;32;20035;-74
2022/04/21 09:41:11;;;;;;;10.13;6.37;;;;;;;9.47;100.00;98418.88;4404429;32;20053;-73
2022/04/21 09:43:41;;;;;;;8.60;6.15;;;;;;;9.46;100.00;98450.28;4389587;32;20078;-73
2022/04/21 09:46:22;;;;;;;12.05;6.75;;;;;;;9.73;100.00;98446.72;4404384;32;20064;-73
2022/04/21 09:48:53;;;;;;;9.60;6.97;;;;;;;9.70;100.00;98410.44;4390874;32;20027;-74
2022/04/21 09:51:25;;;;;;;15.60;6.47;;;;;;;10.24;100.00;98435.47;4393685;32;20045;-74
2022/04/21 09:54:03;;;;;;;9.52;6.93;;;;;;;10.23;100.00;98412.31;4417715;32;20046;-73
2022/04/21 09:56:41;;;;;;;9.50;5.55;;;;;;;10.33;100.00;98439.31;4401236;32;20049;-73
2022/04/21 09:59:10;;;;;;;11.15;6.50;;;;;;;10.38;100.00;98441.22;4403626;32;20077;-73
2022/04/21 10:01:39;;;;;;;8.82;6.28;;;;;;;10.41;100.00;98419.16;4403465;32;20155;-73
2022/04/21 10:04:11;;;;;;;11.85;7.07;;;;;;;10.40;100.00;98429.09;4403192;32;20031;-72
2022/04/21 10:06:42;;;;;;;5.87;4.93;;;;;;;10.37;100.00;98424.28;4401279;32;20043;-73
2022/04/21 10:09:10;;;;;;;6.43;5.75;;;;;;;10.36;100.00;98390.34;4402138;32;20047;-73
2022/04/21 10:11:38;;;;;;;10.18;5.87;;;;;;;10.43;100.00;98395.47;4385194;32;20063;-75
2022/04/21 10:14:06;;;;;;;10.68;6.07;;;;;;;10.61;100.00;98413.03;4387070;32;20431;-73
2022/04/21 10:16:33;;;;;;;8.32;5.87;;;;;;;10.81;100.00;98423.84;4387878;32;20074;-76
2022/04/21 10:19:01;;;;;;;12.80;6.45;;;;;;;10.82;100.00;98420.09;4403516;32;20580;-73
2022/04/21 10:21:30;;;;;;;8.23;5.87;;;;;;;10.88;100.00;98419.03;4402539;32;20043;-75
2022/04/21 10:23:57;;;;;;;8.88;6.00;;;;;;;10.56;100.00;98389.59;4402435;32;20432;-73
2022/04/21 10:26:53;;;;;;;9.00;6.60;;;;;;;10.76;100.00;98421.16;4402286;32;20446;-76
2022/04/21 10:29:23;;;;;;;9.07;5.20;;;;;;;10.87;100.00;98416.59;4391650;32;20132;-74
2022/04/21 10:31:57;;;;;;;6.70;5.12;;;;;;;11.03;100.00;98414.75;4402624;32;20039;-74
2022/04/21 10:34:31;;;;;;;8.55;5.97;;;;;;;10.96;100.00;98381.84;4388775;32;20059;-73
2022/04/21 10:37:12;;;;;;;9.88;6.03;;;;;;;11.03;100.00;98420.94;4403518;32;20031;-73
2022/04/21 10:39:59;;;;;;;7.37;5.50;;;;;;;10.94;100.00;98421.72;4402244;32;20076;-76
2022/04/21 10:42:26;;;;;;;10.73;5.78;;;;;;;11.11;100.00;98426.88;4402171;32;20153;-74
2022/04/21 10:44:54;;;;;;;8.32;5.45;;;;;;;11.36;100.00;98434.16;4388093;32;20053;-73
2022/04/21 10:47:38;;;;;;;8.82;5.18;;;;;;;11.52;100.00;98432.25;4401530;32;20035;-73
2022/04/21 10:50:13;;;;;;;8.02;5.15;;;;;;;11.40;100.00;98427.16;4410585;32;20059;-73
2022/04/21 10:57:57;;;;;;;12.02;5.20;;;;;;;11.42;100.00;98427.69;4410475;32;20069;-74
2022/04/21 11:00:31;;;;;;;10.23;5.05;;;;;;;11.22;100.00;98429.31;4378497;32;20060;-73
2022/04/21 11:03:09;;;;;;;8.45;6.03;;;;;;;10.95;100.00;98404.50;4386843;32;20069;-76
2022/04/21 11:05:38;;;;;;;4.37;3.97;;;;;;;10.87;100.00;98409.31;4387857;32;20035;-73
2022/04/21 11:08:11;;;;;;;6.28;4.80;;;;;;;10.85;100.00;98424.94;4374387;32;20020;-73
2022/04/21 11:10:38;;;;;;;6.50;4.60;;;;;;;11.00;100.00;98434.12;4387126;32;20051;-73
2022/04/21 11:13:18;;;;;;;12.57;5.70;;;;;;;11.14;100.00;98437.94;4392229;32;20061;-74
2022/04/21 11:15:46;;;;;;;6.95;4.70;;;;;;;11.11;100.00;98411.50;4390002;32;20035;-74
2022/04/21 11:18:15;;;;;;;6.57;4.32;;;;;;;11.15;100.00;98407.19;4397368;32;20026;-73
2022/04/21 11:20:47;;;;;;;7.57;4.70;;;;;;;11.49;100.00;98440.88;4415427;32;20027;-73
2022/04/21 11:23:44;;;;;;;7.47;4.87;;;;;;;11.45;100.00;98440.63;4403298;32;20404;-73
2022/04/21 11:26:12;;;;;;;7.35;4.90;;;;;;;11.53;100.00;98440.09;4389376;32;20027;-74
2022/04/21 11:28:43;;;;;;;8.30;6.03;;;;;;;11.35;100.00;98406.41;4390025;32;20050;-73
2022/04/21 11:31:10;;;;;;;7.65;4.93;;;;;;;11.53;100.00;98426.59;4400092;32;20130;-73
2022/04/21 11:33:39;;;;;;;6.47;5.30;;;;;;;11.66;100.00;98443.31;4401839;32;20049;-73
2022/04/21 11:36:06;;;;;;;7.03;5.05;;;;;;;11.49;100.00;98401.28;4388643;32;20047;-74
2022/04/21 11:38:40;;;;;;;13.93;5.07;;;;;;;11.82;100.00;98443.03;4400381;32;20205;-73
2022/04/21 11:41:09;;;;;;;6.55;4.30;;;;;;;11.70;100.00;98439.00;4387670;32;20070;-73
2022/04/21 11:43:37;;;;;;;6.10;5.00;;;;;;;11.53;100.00;98394.25;4398351;32;20039;-73
2022/04/21 11:46:05;;;;;;;7.82;5.00;;;;;;;11.81;100.00;98430.63;4388493;32;20086;-73
2022/04/21 11:48:38;;;;;;;5.22;4.40;;;;;;;11.80;100.00;98434.41;4399141;32;20094;-73
2022/04/21 11:51:04;;;;;;;9.23;5.25;;;;;;;11.75;100.00;98399.34;4402254;32;20046;-74
2022/04/21 11:53:36;;;;;;;13.43;5.55;;;;;;;12.08;100.00;98417.94;4387115;32;20045;-73
2022/04/21 11:56:04;;;;;;;6.18;4.18;;;;;;;12.29;100.00;98424.88;4402491;32;20043;-73
2022/04/21 11:58:35;;;;;;;8.00;5.15;;;;;;;12.30;100.00;98431.87;4400340;32;20035;-73
2022/04/21 12:06:56;;;;;;;6.60;4.25;;;;;;;12.29;100.00;98424.88;4400768;32;20341;-73
2022/04/21 12:09:28;;;;;;;6.57;3.90;;;;;;;11.99;100.00;98409.56;4401541;32;20486;-75
2022/04/21 12:12:03;;;;;;;4.62;4.05;;;;;;;12.14;100.00;98422.22;4389333;32;20047;-72
2022/04/21 12:14:31;;;;;;;5.85;4.72;;;;;;;12.25;100.00;98428.38;4402009;32;20042;-73